ルアンダ の空港の天気 - METARとTAF

ルアンダ国際空港 ( FNLU / LAD ) - アンゴラ ルアンダ
飛行場実況気象(Metar)
観測時間08/17 12:00 WAT (08/17 11:00 UTC)
風向・風速西 2m/s
視程10km以上
天気現象
全天の8割程度の雲 雲底高度 670m
気温24℃
湿度78%
気圧1014hPa
METARFNLU 171100Z 28004KT 9999 BKN022 24/20 Q1014 NOSIG
過去の天気等 Google飛行場航空写真 Wunderground天気予報

過去48時間のMETAR

飛行場予報(TAF)
発表時間: 8/17 12:00 WAT (8/17 11:00 UTC)
予報対象時間: 17日13時 WAT ~ 18日19時 WAT
風向・風速西 3m/s
視程10km以上
なし
17日13時 WAT ~ 17日15時 WAT に徐々に
視程10km以上
なし
17日15時 WAT ~ 17日19時 WAT に 確率 30% で一時的に
風向・風速西南西 8m/s
17日22時 WAT ~ 18日2時 WAT に一時的に
風向・風速不定 2m/s
視程8000m
全天の4割程度の雲 雲底高度 550m
TAF COR FNLU 171100Z 1712/1818 26005KT 9999 NSC
BECMG 1712/1714 CAVOK
PROB30 TEMPO 1714/1718 25015KT
TEMPO 1721/1801 VRB03KT 8000 SCT018